Time;durP1;ratioP1;P1;durP2;ratioP2;P2;SDS_P1;SDS_P2;PMS_P1;PMS_P2;Temp;Humidity;BMP_temperature;BMP_pressure;BME280_temperature;BME280_humidity;BME280_pressure;Samples;Min_cycle;Max_cycle;Signal;HPM_P1;HPM_P2
2021/11/18 00:00:52;;;;;;;;;;;20.50;41.10;;;;;;491829;240;1124;-47
2021/11/18 00:02:54;;;;;;;;;;;20.60;41.10;;;;;;491876;240;1110;-46
2021/11/18 00:04:55;;;;;;;;;;;20.60;41.10;;;;;;491470;240;1039;-46
2021/11/18 00:06:56;;;;;;;;;;;20.60;41.10;;;;;;491602;240;1212;-46
2021/11/18 00:08:57;;;;;;;;;;;20.60;41.10;;;;;;491520;240;1162;-46
2021/11/18 00:10:59;;;;;;;;;;;20.60;41.10;;;;;;491617;240;1207;-47
2021/11/18 00:13:00;;;;;;;;;;;20.60;41.10;;;;;;491933;240;1142;-46
2021/11/18 00:15:01;;;;;;;;;;;20.60;41.10;;;;;;491828;240;2180;-46
2021/11/18 00:17:03;;;;;;;;;;;20.60;41.20;;;;;;491593;240;1193;-46
2021/11/18 00:19:05;;;;;;;;;;;20.50;41.10;;;;;;491726;240;1064;-46
2021/11/18 00:21:06;;;;;;;;;;;20.50;41.10;;;;;;491709;240;1181;-46
2021/11/18 00:23:07;;;;;;;;;;;20.60;41.20;;;;;;491531;240;1214;-46
2021/11/18 00:25:08;;;;;;;;;;;20.60;41.20;;;;;;491645;240;1087;-46
2021/11/18 00:27:10;;;;;;;;;;;20.60;41.20;;;;;;491509;240;1128;-47
2021/11/18 00:29:11;;;;;;;;;;;20.60;41.30;;;;;;491517;240;1241;-46
2021/11/18 00:31:12;;;;;;;;;;;20.60;41.20;;;;;;491416;240;1388;-46
2021/11/18 00:33:14;;;;;;;;;;;20.50;41.20;;;;;;491861;240;1275;-47
2021/11/18 00:35:16;;;;;;;;;;;20.50;41.10;;;;;;491555;240;2176;-46
2021/11/18 00:37:16;;;;;;;;;;;20.60;41.20;;;;;;491428;240;2109;-46
2021/11/18 00:39:18;;;;;;;;;;;20.50;41.20;;;;;;491817;240;1264;-46
2021/11/18 00:41:19;;;;;;;;;;;20.60;41.20;;;;;;491458;240;1233;-46
2021/11/18 00:43:20;;;;;;;;;;;20.60;41.20;;;;;;491480;240;1231;-46
2021/11/18 00:45:22;;;;;;;;;;;20.60;41.20;;;;;;491701;240;1131;-46
2021/11/18 00:47:23;;;;;;;;;;;20.50;41.10;;;;;;491341;240;1672;-46
2021/11/18 00:49:24;;;;;;;;;;;20.60;41.20;;;;;;491813;241;1227;-46
2021/11/18 00:51:26;;;;;;;;;;;20.60;41.20;;;;;;491424;240;1234;-46
2021/11/18 00:53:27;;;;;;;;;;;20.60;41.20;;;;;;491972;240;1098;-46
2021/11/18 00:55:28;;;;;;;;;;;20.60;41.20;;;;;;491682;241;2183;-46
2021/11/18 00:57:30;;;;;;;;;;;20.60;41.20;;;;;;491388;240;1249;-46
2021/11/18 00:59:31;;;;;;;;;;;20.50;41.20;;;;;;491647;240;2375;-46
2021/11/18 01:01:32;;;;;;;;;;;20.60;41.30;;;;;;491455;240;1114;-46
2021/11/18 01:03:34;;;;;;;;;;;20.50;41.20;;;;;;491492;240;1322;-46
2021/11/18 01:05:35;;;;;;;;;;;20.60;41.20;;;;;;491523;240;1302;-46
2021/11/18 01:07:37;;;;;;;;;;;20.60;41.20;;;;;;491367;240;1479;-46
2021/11/18 01:09:38;;;;;;;;;;;20.50;41.20;;;;;;491462;240;1055;-46
2021/11/18 01:11:39;;;;;;;;;;;20.50;41.20;;;;;;491670;240;1510;-46
2021/11/18 01:13:41;;;;;;;;;;;20.50;41.20;;;;;;491981;240;1167;-46
2021/11/18 01:15:42;;;;;;;;;;;20.50;41.10;;;;;;491775;240;2184;-46
2021/11/18 01:17:43;;;;;;;;;;;20.50;41.20;;;;;;491722;240;1252;-47
2021/11/18 01:19:45;;;;;;;;;;;20.50;41.20;;;;;;491990;240;1036;-46
2021/11/18 01:21:46;;;;;;;;;;;20.60;41.30;;;;;;491440;240;1233;-46
2021/11/18 01:23:47;;;;;;;;;;;20.50;41.30;;;;;;491890;240;1254;-46
2021/11/18 01:25:48;;;;;;;;;;;20.50;41.20;;;;;;491587;240;1434;-46
2021/11/18 01:27:50;;;;;;;;;;;20.50;41.20;;;;;;491516;240;1485;-46
2021/11/18 01:29:51;;;;;;;;;;;20.60;41.30;;;;;;491500;240;1039;-46
2021/11/18 01:31:53;;;;;;;;;;;20.60;41.20;;;;;;491523;240;1330;-46
2021/11/18 01:33:54;;;;;;;;;;;20.60;41.20;;;;;;491580;240;1154;-47
2021/11/18 01:35:55;;;;;;;;;;;20.60;41.20;;;;;;491458;240;2187;-46
2021/11/18 01:37:56;;;;;;;;;;;20.60;41.20;;;;;;491527;240;1294;-45
2021/11/18 01:39:58;;;;;;;;;;;20.50;41.20;;;;;;491641;240;1070;-46
2021/11/18 01:41:59;;;;;;;;;;;20.60;41.20;;;;;;491348;241;2043;-46
2021/11/18 01:44:00;;;;;;;;;;;20.60;41.30;;;;;;491543;240;1210;-46
2021/11/18 01:46:02;;;;;;;;;;;20.60;41.30;;;;;;491921;240;1163;-46
2021/11/18 01:48:03;;;;;;;;;;;20.50;41.20;;;;;;491534;240;1145;-46
2021/11/18 01:50:04;;;;;;;;;;;20.60;41.30;;;;;;491753;240;1083;-46
2021/11/18 01:52:06;;;;;;;;;;;20.50;41.20;;;;;;491586;240;1567;-46
2021/11/18 01:54:07;;;;;;;;;;;20.60;41.30;;;;;;491566;240;1032;-46
2021/11/18 01:56:08;;;;;;;;;;;20.50;41.20;;;;;;491819;240;2117;-46
2021/11/18 01:58:10;;;;;;;;;;;20.60;41.30;;;;;;491554;240;1182;-46
2021/11/18 02:00:11;;;;;;;;;;;20.50;41.30;;;;;;491918;241;966;-46
2021/11/18 02:02:12;;;;;;;;;;;20.50;41.30;;;;;;491588;240;1233;-46
2021/11/18 02:04:14;;;;;;;;;;;20.50;41.20;;;;;;491988;240;1218;-46
2021/11/18 02:06:15;;;;;;;;;;;20.60;41.20;;;;;;491494;240;1096;-46
2021/11/18 02:08:16;;;;;;;;;;;20.50;41.30;;;;;;491785;240;1408;-46
2021/11/18 02:10:18;;;;;;;;;;;20.60;41.30;;;;;;491548;240;1033;-46
2021/11/18 02:12:19;;;;;;;;;;;20.60;41.30;;;;;;491843;240;1268;-46
2021/11/18 02:14:20;;;;;;;;;;;20.50;41.30;;;;;;491521;240;1234;-46
2021/11/18 02:16:21;;;;;;;;;;;20.50;41.40;;;;;;491606;241;2117;-46
2021/11/18 02:18:23;;;;;;;;;;;20.50;41.30;;;;;;491467;240;1158;-46
2021/11/18 02:20:24;;;;;;;;;;;20.50;41.30;;;;;;491995;240;1096;-46
2021/11/18 02:22:25;;;;;;;;;;;20.50;41.40;;;;;;491484;240;1440;-46
2021/11/18 02:24:27;;;;;;;;;;;20.50;41.40;;;;;;491491;240;1556;-46
2021/11/18 02:26:28;;;;;;;;;;;20.50;41.30;;;;;;491556;240;1084;-46
2021/11/18 02:28:29;;;;;;;;;;;20.50;41.30;;;;;;491438;240;1203;-47
2021/11/18 02:30:31;;;;;;;;;;;20.50;41.30;;;;;;491433;240;1106;-46
2021/11/18 02:32:32;;;;;;;;;;;20.60;41.40;;;;;;491524;240;1426;-46
2021/11/18 02:34:33;;;;;;;;;;;20.60;41.30;;;;;;491584;240;987;-46
2021/11/18 02:36:35;;;;;;;;;;;20.50;41.30;;;;;;491700;240;2157;-46
2021/11/18 02:38:36;;;;;;;;;;;20.60;41.30;;;;;;491570;240;1253;-46
2021/11/18 02:40:37;;;;;;;;;;;20.60;41.30;;;;;;491891;240;1039;-46
2021/11/18 02:42:39;;;;;;;;;;;20.60;41.20;;;;;;491524;240;1299;-46
2021/11/18 02:44:40;;;;;;;;;;;20.50;41.30;;;;;;491768;240;1203;-46
2021/11/18 02:46:41;;;;;;;;;;;20.60;41.30;;;;;;491485;240;1081;-46
2021/11/18 02:48:43;;;;;;;;;;;20.50;41.20;;;;;;491913;240;1221;-46
2021/11/18 02:50:44;;;;;;;;;;;20.50;41.20;;;;;;491445;240;2150;-46
2021/11/18 02:52:46;;;;;;;;;;;20.50;41.30;;;;;;491651;240;1227;-46
2021/11/18 02:54:47;;;;;;;;;;;20.50;41.40;;;;;;491556;240;1109;-46
2021/11/18 02:56:50;;;;;;;;;;;20.50;41.40;;;;;;491655;240;2192;-46
2021/11/18 02:58:49;;;;;;;;;;;20.50;41.40;;;;;;491486;240;2140;-46
2021/11/18 03:00:51;;;;;;;;;;;20.50;41.40;;;;;;491920;240;1045;-46
2021/11/18 03:02:52;;;;;;;;;;;20.50;41.40;;;;;;491685;240;1381;-46
2021/11/18 03:04:53;;;;;;;;;;;20.50;41.40;;;;;;491566;240;1201;-46
2021/11/18 03:06:55;;;;;;;;;;;20.50;41.30;;;;;;491634;240;1065;-46
2021/11/18 03:08:56;;;;;;;;;;;20.50;41.40;;;;;;491577;240;1668;-46
2021/11/18 03:10:57;;;;;;;;;;;20.50;41.50;;;;;;491507;240;1052;-46
2021/11/18 03:12:59;;;;;;;;;;;20.50;41.40;;;;;;491489;240;1521;-46
2021/11/18 03:15:00;;;;;;;;;;;20.50;41.50;;;;;;491882;240;982;-46
2021/11/18 03:17:01;;;;;;;;;;;20.50;41.40;;;;;;491801;240;2145;-46
2021/11/18 03:19:03;;;;;;;;;;;20.50;41.40;;;;;;491499;240;1226;-46
2021/11/18 03:21:04;;;;;;;;;;;20.50;41.40;;;;;;491438;240;1420;-46
2021/11/18 03:23:05;;;;;;;;;;;20.50;41.40;;;;;;491709;240;1143;-46
2021/11/18 03:25:07;;;;;;;;;;;20.60;41.40;;;;;;491916;240;1035;-46
2021/11/18 03:27:08;;;;;;;;;;;20.50;41.30;;;;;;491694;240;1257;-46
2021/11/18 03:29:09;;;;;;;;;;;20.50;41.40;;;;;;491660;240;1163;-46
2021/11/18 03:31:11;;;;;;;;;;;20.50;41.40;;;;;;491722;240;1289;-46
2021/11/18 03:33:12;;;;;;;;;;;20.50;41.30;;;;;;491418;240;1106;-46
2021/11/18 03:35:13;;;;;;;;;;;20.50;41.40;;;;;;491758;240;1112;-46
2021/11/18 03:37:15;;;;;;;;;;;20.50;41.40;;;;;;491574;240;2114;-46
2021/11/18 03:39:16;;;;;;;;;;;20.50;41.30;;;;;;491905;240;1163;-47
2021/11/18 03:41:17;;;;;;;;;;;20.50;41.40;;;;;;491869;240;1077;-47
2021/11/18 03:43:19;;;;;;;;;;;20.50;41.40;;;;;;491711;240;1228;-46
2021/11/18 03:45:20;;;;;;;;;;;20.50;41.40;;;;;;491876;240;1073;-46
2021/11/18 03:47:21;;;;;;;;;;;20.50;41.30;;;;;;491485;240;1358;-46
2021/11/18 03:49:22;;;;;;;;;;;20.50;41.40;;;;;;492022;240;1096;-46
2021/11/18 03:51:24;;;;;;;;;;;20.50;41.40;;;;;;491684;241;1115;-46
2021/11/18 03:53:25;;;;;;;;;;;20.50;41.40;;;;;;491692;240;1222;-46
2021/11/18 03:55:26;;;;;;;;;;;20.50;41.40;;;;;;491492;240;1042;-47
2021/11/18 03:57:28;;;;;;;;;;;20.50;41.40;;;;;;491481;240;2189;-46
2021/11/18 03:59:29;;;;;;;;;;;20.50;41.40;;;;;;491548;240;1214;-46
2021/11/18 04:01:30;;;;;;;;;;;20.50;41.40;;;;;;491501;240;1173;-46
2021/11/18 04:03:32;;;;;;;;;;;20.50;41.40;;;;;;491500;240;1265;-46
2021/11/18 04:05:33;;;;;;;;;;;20.50;41.40;;;;;;491560;240;1133;-46
2021/11/18 04:07:39;;;;;;;;;;;20.50;41.40;;;;;;491808;240;1063;-46
2021/11/18 04:09:37;;;;;;;;;;;20.50;41.40;;;;;;491731;240;2229;-46
2021/11/18 04:11:39;;;;;;;;;;;20.50;41.40;;;;;;491408;240;1345;-46
2021/11/18 04:13:40;;;;;;;;;;;20.50;41.50;;;;;;491520;240;1244;-46
2021/11/18 04:15:43;;;;;;;;;;;20.50;41.40;;;;;;491896;240;1204;-46
2021/11/18 04:17:43;;;;;;;;;;;20.50;41.40;;;;;;491735;240;2195;-46
2021/11/18 04:19:44;;;;;;;;;;;20.50;41.50;;;;;;491735;241;1111;-46
2021/11/18 04:21:45;;;;;;;;;;;20.50;41.50;;;;;;491616;240;1257;-46
2021/11/18 04:23:47;;;;;;;;;;;20.50;41.50;;;;;;491564;240;1130;-46
2021/11/18 04:25:48;;;;;;;;;;;20.50;41.50;;;;;;491490;240;1173;-46
2021/11/18 04:27:49;;;;;;;;;;;20.50;41.40;;;;;;491695;240;1247;-46
2021/11/18 04:29:51;;;;;;;;;;;20.50;41.40;;;;;;491554;240;1127;-46
2021/11/18 04:31:52;;;;;;;;;;;20.50;41.40;;;;;;491630;240;1191;-46
2021/11/18 04:33:53;;;;;;;;;;;20.50;41.50;;;;;;491497;240;1258;-46
2021/11/18 04:35:55;;;;;;;;;;;20.40;41.50;;;;;;491459;240;1201;-46
2021/11/18 04:37:56;;;;;;;;;;;20.40;41.50;;;;;;491488;240;2179;-46
2021/11/18 04:39:57;;;;;;;;;;;20.50;41.50;;;;;;492042;240;1226;-46
2021/11/18 04:41:59;;;;;;;;;;;20.50;41.50;;;;;;491428;240;1264;-46
2021/11/18 04:44:00;;;;;;;;;;;20.50;41.50;;;;;;491484;240;1224;-46
2021/11/18 04:46:01;;;;;;;;;;;20.50;41.50;;;;;;491354;240;1228;-46
2021/11/18 04:48:02;;;;;;;;;;;20.50;41.50;;;;;;491834;240;1270;-46
2021/11/18 04:50:04;;;;;;;;;;;20.50;41.60;;;;;;491609;240;1209;-46
2021/11/18 04:52:05;;;;;;;;;;;20.40;41.50;;;;;;491521;240;1261;-46
2021/11/18 04:54:06;;;;;;;;;;;20.40;41.50;;;;;;491826;240;1461;-46
2021/11/18 04:56:08;;;;;;;;;;;20.50;41.50;;;;;;491350;241;1635;-46
2021/11/18 04:58:09;;;;;;;;;;;20.50;41.50;;;;;;490416;243;2201;-46
2021/11/18 05:00:11;;;;;;;;;;;20.50;41.60;;;;;;490522;241;1932;-46
2021/11/18 05:02:13;;;;;;;;;;;20.50;41.60;;;;;;490631;240;1202;-46
2021/11/18 05:04:13;;;;;;;;;;;20.50;41.60;;;;;;490550;241;2416;-46
2021/11/18 05:06:15;;;;;;;;;;;20.40;41.50;;;;;;490824;240;1090;-46
2021/11/18 05:08:16;;;;;;;;;;;20.40;41.60;;;;;;490616;241;1240;-46
2021/11/18 05:10:17;;;;;;;;;;;20.50;41.60;;;;;;491070;240;1065;-46
2021/11/18 05:12:18;;;;;;;;;;;20.40;41.60;;;;;;490508;241;1317;-46
2021/11/18 05:14:20;;;;;;;;;;;20.40;41.50;;;;;;490696;240;1280;-46
2021/11/18 05:16:21;;;;;;;;;;;20.40;41.50;;;;;;490779;240;1096;-46
2021/11/18 05:18:22;;;;;;;;;;;20.50;41.60;;;;;;490662;240;2181;-46
2021/11/18 05:20:24;;;;;;;;;;;20.40;41.50;;;;;;490475;241;1346;-46
2021/11/18 05:22:25;;;;;;;;;;;20.50;41.50;;;;;;490654;240;1458;-46
2021/11/18 05:24:26;;;;;;;;;;;20.50;41.50;;;;;;490531;241;1052;-46
2021/11/18 05:26:28;;;;;;;;;;;20.50;41.50;;;;;;490492;240;1630;-45
2021/11/18 05:28:29;;;;;;;;;;;20.40;41.50;;;;;;490739;240;1164;-46
2021/11/18 05:30:32;;;;;;;;;;;20.50;41.60;;;;;;490480;240;1163;-46
2021/11/18 05:32:32;;;;;;;;;;;20.40;41.50;;;;;;490526;240;2210;-46
2021/11/18 05:34:33;;;;;;;;;;;20.40;41.50;;;;;;489976;240;1221;-46
2021/11/18 05:36:34;;;;;;;;;;;20.50;41.60;;;;;;490348;240;2199;-46
2021/11/18 05:38:35;;;;;;;;;;;20.50;41.60;;;;;;490579;240;1157;-46
2021/11/18 05:40:37;;;;;;;;;;;20.50;41.60;;;;;;490490;240;1038;-46
2021/11/18 05:42:38;;;;;;;;;;;20.50;41.60;;;;;;490325;241;1288;-46
2021/11/18 05:44:39;;;;;;;;;;;20.40;41.60;;;;;;490472;241;1168;-46
2021/11/18 05:46:41;;;;;;;;;;;20.40;41.60;;;;;;490354;240;1223;-46
2021/11/18 05:48:43;;;;;;;;;;;20.50;41.60;;;;;;490399;240;1343;-46
2021/11/18 05:50:46;;;;;;;;;;;20.40;41.60;;;;;;490431;241;1136;-46
2021/11/18 05:52:45;;;;;;;;;;;20.40;41.60;;;;;;490485;240;2318;-46
2021/11/18 05:54:46;;;;;;;;;;;20.40;41.60;;;;;;490399;241;1076;-45
2021/11/18 05:56:48;;;;;;;;;;;20.40;41.50;;;;;;490551;240;2192;-46
2021/11/18 05:58:51;;;;;;;;;;;20.50;41.60;;;;;;490359;241;1392;-46
2021/11/18 06:00:50;;;;;;;;;;;20.50;41.60;;;;;;490473;240;2239;-46
2021/11/18 06:02:52;;;;;;;;;;;20.40;41.60;;;;;;490490;240;1344;-46
2021/11/18 06:04:53;;;;;;;;;;;20.40;41.60;;;;;;490591;240;1087;-46
2021/11/18 06:06:54;;;;;;;;;;;20.50;41.60;;;;;;490450;240;1144;-46
2021/11/18 06:09:02;;;;;;;;;;;20.50;41.60;;;;;;490371;241;1162;-46
2021/11/18 06:10:58;;;;;;;;;;;20.50;41.50;;;;;;490741;240;1762;-46
2021/11/18 06:13:00;;;;;;;;;;;20.50;41.60;;;;;;490516;240;1260;-46
2021/11/18 06:15:00;;;;;;;;;;;20.50;41.60;;;;;;490532;240;1618;-46
2021/11/18 06:17:02;;;;;;;;;;;20.40;41.60;;;;;;490274;240;2185;-46
2021/11/18 06:19:04;;;;;;;;;;;20.40;41.70;;;;;;490250;241;1205;-46
2021/11/18 06:21:04;;;;;;;;;;;20.50;41.70;;;;;;490228;241;2165;-46
2021/11/18 06:23:06;;;;;;;;;;;20.40;41.60;;;;;;490249;240;1278;-46
2021/11/18 06:25:07;;;;;;;;;;;20.40;41.70;;;;;;490128;241;1090;-45
2021/11/18 06:27:08;;;;;;;;;;;20.40;41.70;;;;;;490239;240;1223;-46
2021/11/18 06:29:10;;;;;;;;;;;20.40;41.60;;;;;;490186;241;1212;-46
2021/11/18 06:31:11;;;;;;;;;;;20.40;41.70;;;;;;490231;240;1321;-46
2021/11/18 06:33:12;;;;;;;;;;;20.40;41.70;;;;;;490364;240;1183;-46
2021/11/18 06:35:14;;;;;;;;;;;20.40;41.70;;;;;;490272;241;1289;-46
2021/11/18 06:37:15;;;;;;;;;;;20.40;41.60;;;;;;490140;241;2180;-46
2021/11/18 06:39:16;;;;;;;;;;;20.50;41.70;;;;;;490243;240;1046;-47
2021/11/18 06:41:18;;;;;;;;;;;20.40;41.70;;;;;;490083;241;1135;-46
2021/11/18 06:43:19;;;;;;;;;;;20.50;41.60;;;;;;490140;240;1323;-46
2021/11/18 06:45:20;;;;;;;;;;;20.40;41.70;;;;;;490108;241;1197;-46
2021/11/18 06:47:22;;;;;;;;;;;20.40;41.70;;;;;;490222;241;1159;-46
2021/11/18 06:49:23;;;;;;;;;;;20.40;41.70;;;;;;490289;240;1091;-46
2021/11/18 06:51:24;;;;;;;;;;;20.40;41.70;;;;;;490285;240;1236;-46
2021/11/18 06:53:25;;;;;;;;;;;20.40;41.70;;;;;;490353;240;1195;-46
2021/11/18 06:55:27;;;;;;;;;;;20.50;41.70;;;;;;490267;240;1170;-46
2021/11/18 06:57:28;;;;;;;;;;;20.50;41.70;;;;;;489997;241;2125;-46
2021/11/18 06:59:30;;;;;;;;;;;20.50;41.50;;;;;;490153;240;1493;-46
2021/11/18 07:01:31;;;;;;;;;;;20.70;41.30;;;;;;490012;240;1219;-47
2021/11/18 07:03:32;;;;;;;;;;;20.80;40.90;;;;;;490176;240;1293;-46
2021/11/18 07:05:33;;;;;;;;;;;21.00;40.60;;;;;;490096;241;1253;-46
2021/11/18 07:07:35;;;;;;;;;;;21.10;40.40;;;;;;490469;240;1195;-46
2021/11/18 07:09:37;;;;;;;;;;;21.20;40.20;;;;;;490039;240;1129;-46
2021/11/18 07:11:38;;;;;;;;;;;21.20;40.00;;;;;;490004;241;2282;-46
2021/11/18 07:13:39;;;;;;;;;;;21.30;39.90;;;;;;490106;241;1319;-46
2021/11/18 07:15:41;;;;;;;;;;;21.40;39.80;;;;;;490083;241;1218;-47
2021/11/18 07:17:42;;;;;;;;;;;21.40;39.70;;;;;;490114;241;2177;-46
2021/11/18 07:19:43;;;;;;;;;;;21.50;39.60;;;;;;490161;240;1058;-46
2021/11/18 07:21:45;;;;;;;;;;;21.50;39.50;;;;;;489959;241;1165;-46
2021/11/18 07:23:46;;;;;;;;;;;21.60;39.40;;;;;;489973;240;1208;-46
2021/11/18 07:25:47;;;;;;;;;;;21.60;39.40;;;;;;489932;241;1266;-47
2021/11/18 07:27:49;;;;;;;;;;;21.60;39.30;;;;;;489999;241;1412;-47
2021/11/18 07:29:50;;;;;;;;;;;21.70;39.20;;;;;;490007;241;1070;-47
2021/11/18 07:31:52;;;;;;;;;;;21.70;39.10;;;;;;490048;240;1179;-47
2021/11/18 07:33:53;;;;;;;;;;;21.70;39.10;;;;;;490276;240;1126;-47
2021/11/18 07:35:54;;;;;;;;;;;21.70;39.00;;;;;;490152;240;1409;-47
2021/11/18 07:37:57;;;;;;;;;;;21.70;38.90;;;;;;489908;241;2184;-47
2021/11/18 07:39:58;;;;;;;;;;;21.70;38.80;;;;;;490030;241;1933;-47
2021/11/18 07:41:58;;;;;;;;;;;21.80;38.80;;;;;;489892;240;2652;-46
2021/11/18 07:44:00;;;;;;;;;;;21.80;38.80;;;;;;489958;240;1170;-47
2021/11/18 07:46:01;;;;;;;;;;;21.80;38.80;;;;;;489764;241;1188;-46
2021/11/18 07:48:02;;;;;;;;;;;21.80;38.90;;;;;;489927;241;1100;-47
2021/11/18 07:50:03;;;;;;;;;;;21.80;38.80;;;;;;489946;240;1074;-47
2021/11/18 07:52:05;;;;;;;;;;;21.80;38.80;;;;;;489662;240;1739;-47
2021/11/18 07:54:06;;;;;;;;;;;21.90;38.70;;;;;;489744;241;1320;-46
2021/11/18 07:56:07;;;;;;;;;;;21.90;38.70;;;;;;489848;240;1324;-47
2021/11/18 07:58:09;;;;;;;;;;;21.90;38.70;;;;;;489899;241;2192;-47
2021/11/18 08:00:10;;;;;;;;;;;21.90;38.70;;;;;;489984;240;1055;-47
2021/11/18 08:02:12;;;;;;;;;;;21.90;38.60;;;;;;490069;241;1251;-47
2021/11/18 08:04:13;;;;;;;;;;;21.90;38.60;;;;;;490168;241;1096;-47
2021/11/18 08:06:14;;;;;;;;;;;21.90;38.60;;;;;;489795;240;1247;-46
2021/11/18 08:08:16;;;;;;;;;;;21.90;38.50;;;;;;489760;240;1121;-46
2021/11/18 08:10:17;;;;;;;;;;;21.90;38.60;;;;;;489721;241;1113;-46
2021/11/18 08:12:18;;;;;;;;;;;22.00;38.50;;;;;;489777;240;1248;-47
2021/11/18 08:14:20;;;;;;;;;;;22.00;38.50;;;;;;489708;240;1265;-47
2021/11/18 08:16:21;;;;;;;;;;;22.00;38.40;;;;;;489810;240;1195;-46
2021/11/18 08:18:23;;;;;;;;;;;22.00;38.40;;;;;;489911;240;2112;-47
2021/11/18 08:20:24;;;;;;;;;;;22.00;38.40;;;;;;489793;240;1907;-46
2021/11/18 08:22:25;;;;;;;;;;;22.00;38.40;;;;;;489775;240;1327;-47
2021/11/18 08:24:28;;;;;;;;;;;22.00;38.40;;;;;;489925;241;1053;-46
2021/11/18 08:26:28;;;;;;;;;;;22.00;38.30;;;;;;489867;241;2218;-46
2021/11/18 08:28:29;;;;;;;;;;;22.10;38.30;;;;;;490054;240;1360;-46
2021/11/18 08:30:31;;;;;;;;;;;22.10;38.30;;;;;;489839;240;1189;-47
2021/11/18 08:32:32;;;;;;;;;;;22.10;38.20;;;;;;489814;241;1264;-47
2021/11/18 08:34:33;;;;;;;;;;;22.10;38.30;;;;;;489910;241;1096;-47
2021/11/18 08:36:37;;;;;;;;;;;22.10;38.20;;;;;;490004;240;1120;-46
2021/11/18 08:38:36;;;;;;;;;;;22.10;38.20;;;;;;490213;241;2200;-47
2021/11/18 08:40:37;;;;;;;;;;;22.10;38.10;;;;;;490304;240;1270;-46
2021/11/18 08:42:39;;;;;;;;;;;22.10;38.00;;;;;;489748;241;1254;-46
2021/11/18 08:44:40;;;;;;;;;;;22.10;38.10;;;;;;489844;240;1182;-46
2021/11/18 08:46:41;;;;;;;;;;;22.20;38.10;;;;;;489799;240;1206;-47
2021/11/18 08:48:42;;;;;;;;;;;22.10;38.00;;;;;;489798;240;1260;-46
2021/11/18 08:50:44;;;;;;;;;;;22.10;38.00;;;;;;489667;240;1042;-46
2021/11/18 08:52:45;;;;;;;;;;;22.20;38.00;;;;;;489624;240;1178;-46
2021/11/18 08:54:46;;;;;;;;;;;22.20;38.00;;;;;;489738;240;2018;-46
2021/11/18 08:56:50;;;;;;;;;;;22.20;38.00;;;;;;489693;240;1240;-46
2021/11/18 08:58:50;;;;;;;;;;;22.20;37.90;;;;;;489637;241;2209;-47
2021/11/18 09:00:51;;;;;;;;;;;22.20;38.00;;;;;;489676;240;1246;-46
2021/11/18 09:02:53;;;;;;;;;;;22.20;37.90;;;;;;489809;241;1272;-46
2021/11/18 09:04:54;;;;;;;;;;;22.20;37.90;;;;;;489898;240;1058;-47
2021/11/18 09:06:55;;;;;;;;;;;22.20;38.00;;;;;;489797;241;1242;-47
2021/11/18 09:08:57;;;;;;;;;;;22.20;37.90;;;;;;489780;240;1043;-46
2021/11/18 09:10:58;;;;;;;;;;;22.20;37.90;;;;;;489735;240;1236;-47
2021/11/18 09:12:59;;;;;;;;;;;22.20;37.90;;;;;;489664;241;1323;-46
2021/11/18 09:15:02;;;;;;;;;;;22.20;37.90;;;;;;489720;240;1066;-46
2021/11/18 09:17:03;;;;;;;;;;;22.30;37.90;;;;;;490043;241;1148;-47
2021/11/18 09:19:04;;;;;;;;;;;22.20;37.70;;;;;;489724;241;2217;-47
2021/11/18 09:21:06;;;;;;;;;;;22.20;37.80;;;;;;489707;240;1284;-46
2021/11/18 09:23:07;;;;;;;;;;;22.30;37.90;;;;;;489689;241;1332;-47
2021/11/18 09:25:09;;;;;;;;;;;22.20;37.80;;;;;;489751;240;1097;-47
2021/11/18 09:27:10;;;;;;;;;;;22.20;37.80;;;;;;490041;241;2163;-47
2021/11/18 09:29:12;;;;;;;;;;;22.30;37.70;;;;;;489719;240;1076;-47
2021/11/18 09:31:13;;;;;;;;;;;22.30;37.70;;;;;;489459;241;1233;-46
2021/11/18 09:33:14;;;;;;;;;;;22.30;37.70;;;;;;489451;241;1599;-46
2021/11/18 09:35:16;;;;;;;;;;;22.30;37.70;;;;;;489535;240;1083;-47
2021/11/18 09:37:17;;;;;;;;;;;22.30;37.70;;;;;;489531;241;1748;-46
2021/11/18 09:39:18;;;;;;;;;;;22.30;37.70;;;;;;489611;240;2161;-47
2021/11/18 09:41:20;;;;;;;;;;;22.30;37.60;;;;;;489635;240;1251;-47
2021/11/18 09:43:21;;;;;;;;;;;22.30;37.70;;;;;;489636;241;1176;-46
2021/11/18 09:45:22;;;;;;;;;;;22.30;37.70;;;;;;489242;240;1105;-47
2021/11/18 09:47:25;;;;;;;;;;;22.40;37.70;;;;;;489757;240;1292;-46
2021/11/18 09:49:25;;;;;;;;;;;22.30;37.60;;;;;;489669;241;1630;-46
2021/11/18 09:51:26;;;;;;;;;;;22.40;37.70;;;;;;489566;240;1276;-46
2021/11/18 09:53:28;;;;;;;;;;;22.40;37.70;;;;;;489513;241;1131;-46
2021/11/18 09:55:29;;;;;;;;;;;22.30;37.60;;;;;;489525;240;1106;-46
2021/11/18 09:57:30;;;;;;;;;;;22.40;37.60;;;;;;489699;240;1296;-47
2021/11/18 09:59:31;;;;;;;;;;;22.40;37.60;;;;;;489951;240;2196;-47
2021/11/18 10:01:33;;;;;;;;;;;22.40;37.60;;;;;;489784;241;1319;-46
2021/11/18 10:03:34;;;;;;;;;;;22.40;37.60;;;;;;489764;240;1224;-47
2021/11/18 10:05:35;;;;;;;;;;;22.40;37.60;;;;;;489853;240;1055;-47
2021/11/18 10:07:37;;;;;;;;;;;22.40;37.60;;;;;;489674;240;1341;-47
2021/11/18 10:09:39;;;;;;;;;;;22.40;37.50;;;;;;489766;241;1053;-46
2021/11/18 10:11:39;;;;;;;;;;;22.40;37.50;;;;;;489735;241;1898;-47
2021/11/18 10:13:41;;;;;;;;;;;22.40;37.50;;;;;;489864;240;1208;-46
2021/11/18 10:15:42;;;;;;;;;;;22.40;37.50;;;;;;489840;240;1158;-46
2021/11/18 10:17:45;;;;;;;;;;;22.40;37.50;;;;;;489662;240;1213;-47
2021/11/18 10:19:45;;;;;;;;;;;22.40;37.50;;;;;;489546;241;2252;-47
2021/11/18 10:21:46;;;;;;;;;;;22.40;37.50;;;;;;489638;241;1147;-47
2021/11/18 10:23:47;;;;;;;;;;;22.40;37.40;;;;;;489829;240;1284;-46
2021/11/18 10:25:49;;;;;;;;;;;22.40;37.40;;;;;;489770;241;1200;-47
2021/11/18 10:27:50;;;;;;;;;;;22.50;37.40;;;;;;489802;240;1199;-47
2021/11/18 10:29:51;;;;;;;;;;;22.40;37.50;;;;;;489828;240;1062;-47
2021/11/18 10:31:54;;;;;;;;;;;22.50;37.40;;;;;;489766;240;1331;-47
2021/11/18 10:33:54;;;;;;;;;;;22.50;37.50;;;;;;489833;240;1720;-46
2021/11/18 10:35:55;;;;;;;;;;;22.50;37.40;;;;;;489792;240;1401;-47
2021/11/18 10:37:57;;;;;;;;;;;22.50;37.30;;;;;;489798;240;1225;-46
2021/11/18 10:39:58;;;;;;;;;;;22.50;37.40;;;;;;489768;241;2181;-47
2021/11/18 10:41:59;;;;;;;;;;;22.50;37.40;;;;;;489772;240;1209;-47
2021/11/18 10:44:01;;;;;;;;;;;22.50;37.40;;;;;;489831;241;1317;-46
2021/11/18 10:46:02;;;;;;;;;;;22.50;37.40;;;;;;489762;240;1322;-47
2021/11/18 10:48:03;;;;;;;;;;;22.50;37.40;;;;;;489769;240;1213;-47
2021/11/18 10:50:05;;;;;;;;;;;22.50;37.40;;;;;;489860;240;1266;-47
2021/11/18 10:52:08;;;;;;;;;;;22.50;37.30;;;;;;489708;240;1241;-47
2021/11/18 10:54:07;;;;;;;;;;;22.50;37.30;;;;;;489751;240;1573;-47
2021/11/18 10:56:09;;;;;;;;;;;22.50;37.30;;;;;;489671;240;1093;-47
2021/11/18 10:58:10;;;;;;;;;;;22.50;37.30;;;;;;489801;240;1196;-47
2021/11/18 11:00:11;;;;;;;;;;;22.50;37.30;;;;;;489803;240;2168;-46
2021/11/18 11:02:13;;;;;;;;;;;22.50;37.30;;;;;;489709;241;1259;-47
2021/11/18 11:04:14;;;;;;;;;;;22.50;37.30;;;;;;489760;240;1189;-46
2021/11/18 11:06:15;;;;;;;;;;;22.60;37.30;;;;;;489804;240;1141;-47
2021/11/18 11:08:17;;;;;;;;;;;22.50;37.30;;;;;;489743;240;1263;-47
2021/11/18 11:10:18;;;;;;;;;;;22.50;37.30;;;;;;489725;240;1073;-47
2021/11/18 11:12:19;;;;;;;;;;;22.50;37.30;;;;;;489790;240;1155;-47
2021/11/18 11:14:20;;;;;;;;;;;22.50;37.30;;;;;;489870;240;1125;-47
2021/11/18 11:16:22;;;;;;;;;;;22.60;37.30;;;;;;489165;240;1335;-47
2021/11/18 11:18:23;;;;;;;;;;;22.50;37.30;;;;;;489849;240;1216;-47
2021/11/18 11:20:25;;;;;;;;;;;22.50;37.30;;;;;;489653;240;2177;-47
2021/11/18 11:22:26;;;;;;;;;;;22.50;37.30;;;;;;489841;240;1210;-47
2021/11/18 11:24:27;;;;;;;;;;;22.50;37.20;;;;;;490038;240;1040;-47
2021/11/18 11:26:28;;;;;;;;;;;22.50;37.30;;;;;;489890;240;1068;-47
2021/11/18 11:28:30;;;;;;;;;;;22.60;37.30;;;;;;489723;240;1243;-48
2021/11/18 11:30:31;;;;;;;;;;;22.50;37.20;;;;;;489704;240;1159;-47
2021/11/18 11:32:32;;;;;;;;;;;22.50;37.30;;;;;;489622;240;1083;-47
2021/11/18 11:34:34;;;;;;;;;;;22.50;37.30;;;;;;489694;241;1192;-47
2021/11/18 11:36:35;;;;;;;;;;;22.50;37.30;;;;;;489821;240;1220;-47
2021/11/18 11:38:37;;;;;;;;;;;22.60;37.40;;;;;;490019;240;1206;-47
2021/11/18 11:40:38;;;;;;;;;;;22.50;37.20;;;;;;489911;240;2117;-47
2021/11/18 11:42:39;;;;;;;;;;;22.50;37.20;;;;;;489809;241;1221;-47
2021/11/18 11:44:42;;;;;;;;;;;22.60;37.30;;;;;;489872;241;1112;-47
2021/11/18 11:46:42;;;;;;;;;;;22.50;37.30;;;;;;490022;240;1966;-47
2021/11/18 11:48:43;;;;;;;;;;;22.50;37.30;;;;;;489802;241;1184;-47
2021/11/18 11:50:45;;;;;;;;;;;22.50;37.30;;;;;;490064;240;1236;-47
2021/11/18 11:52:46;;;;;;;;;;;22.60;37.30;;;;;;489738;240;1272;-47
2021/11/18 11:54:47;;;;;;;;;;;22.50;37.30;;;;;;489738;240;1241;-47
2021/11/18 11:56:49;;;;;;;;;;;22.60;37.30;;;;;;489823;241;1321;-47